Time;durP1;ratioP1;P1;durP2;ratioP2;P2;SDS_P1;SDS_P2;PMS_P1;PMS_P2;Temp;Humidity;BMP_temperature;BMP_pressure;BME280_temperature;BME280_humidity;BME280_pressure;Samples;Min_cycle;Max_cycle;Signal;HPM_P1;HPM_P2
2022/07/16 00:01:22;;;;;;;8.70;5.40;;;16.80;37.20;;;;;;5072695;28;20390;-77
2022/07/16 00:01:45;;;;;;;8.77;5.90;;;17.00;36.50;;;;;;5072518;28;20388;-79
2022/07/16 00:04:11;;;;;;;12.13;5.90;;;17.00;36.20;;;;;;5072428;28;20841;-76
2022/07/16 00:06:36;;;;;;;11.40;5.47;;;17.00;37.20;;;;;;5071402;28;20424;-76
2022/07/16 00:09:03;;;;;;;12.90;6.23;;;16.90;38.00;;;;;;5072641;28;20737;-77
2022/07/16 00:11:28;;;;;;;9.60;5.47;;;16.90;38.70;;;;;;5072027;28;20383;-76
2022/07/16 00:13:54;;;;;;;10.30;4.80;;;16.80;39.10;;;;;;5070915;28;20391;-77
2022/07/16 00:16:20;;;;;;;6.55;4.70;;;16.80;39.80;;;;;;5073909;28;20460;-79
2022/07/16 00:21:29;;;;;;;13.60;7.40;;;17.00;38.80;;;;;;5072296;28;20403;-78
2022/07/16 00:23:55;;;;;;;14.37;7.17;;;17.00;38.80;;;;;;5072874;28;20940;-77
2022/07/16 00:26:21;;;;;;;11.95;6.30;;;16.90;39.40;;;;;;5072568;28;20424;-77
2022/07/16 00:28:46;;;;;;;10.90;6.22;;;16.90;39.50;;;;;;5072183;28;20391;-77
2022/07/16 00:31:12;;;;;;;11.70;5.90;;;16.80;39.70;;;;;;5072302;28;20482;-77
2022/07/16 00:33:38;;;;;;;11.87;6.00;;;16.80;39.80;;;;;;5072410;28;20386;-76
2022/07/16 00:36:04;;;;;;;11.40;5.85;;;16.70;40.30;;;;;;5080337;28;20404;-76
2022/07/16 00:38:30;;;;;;;9.80;5.33;;;16.70;41.30;;;;;;5084935;28;20414;-76
2022/07/16 00:40:56;;;;;;;8.63;4.88;;;16.70;41.80;;;;;;5084593;28;20872;-77
2022/07/16 00:43:21;;;;;;;10.13;4.90;;;16.80;41.40;;;;;;5086641;28;20460;-77
2022/07/16 00:45:47;;;;;;;6.20;4.17;;;17.10;38.80;;;;;;5090634;28;20429;-80
2022/07/16 00:48:12;;;;;;;8.82;4.40;;;17.00;39.00;;;;;;5091136;28;20430;-80
2022/07/16 00:50:39;;;;;;;7.75;4.55;;;17.10;38.20;;;;;;5090413;28;20364;-78
2022/07/16 00:53:08;;;;;;;10.10;5.10;;;17.20;36.70;;;;;;5085090;28;20392;-77
2022/07/16 00:55:34;;;;;;;8.97;4.97;;;17.10;38.00;;;;;;5073139;28;20380;-76
2022/07/16 00:58:00;;;;;;;8.40;4.50;;;16.90;40.10;;;;;;5072407;28;20388;-77
2022/07/16 01:00:26;;;;;;;7.30;4.00;;;16.70;41.60;;;;;;5072240;28;20388;-77
2022/07/16 01:02:52;;;;;;;6.18;4.00;;;16.60;42.20;;;;;;5071672;28;20387;-76
2022/07/16 01:05:19;;;;;;;8.68;5.60;;;16.30;44.00;;;;;;5071294;28;20384;-76
2022/07/16 01:07:45;;;;;;;7.90;4.43;;;16.20;46.40;;;;;;5071632;28;20415;-76
2022/07/16 01:10:11;;;;;;;6.95;4.55;;;16.00;47.70;;;;;;5071483;28;20379;-75
2022/07/16 01:12:38;;;;;;;11.43;4.90;;;15.90;49.50;;;;;;5071506;28;20437;-77
2022/07/16 01:15:04;;;;;;;13.20;4.90;;;15.80;50.90;;;;;;5071676;28;20380;-77
2022/07/16 01:17:30;;;;;;;7.10;4.57;;;15.80;51.20;;;;;;5071782;28;20407;-77
2022/07/16 01:19:55;;;;;;;10.40;4.90;;;15.80;51.60;;;;;;5071921;28;20376;-78
2022/07/16 01:22:23;;;;;;;6.53;4.40;;;16.00;48.70;;;;;;5071174;28;20371;-76
2022/07/16 01:24:50;;;;;;;7.95;4.60;;;16.20;48.10;;;;;;5071148;28;20525;-77
2022/07/16 01:27:17;;;;;;;10.32;5.10;;;16.20;46.90;;;;;;5071302;28;20387;-78
2022/07/16 01:29:42;;;;;;;10.07;4.22;;;16.40;44.20;;;;;;5071785;28;20938;-76
2022/07/16 01:32:08;;;;;;;7.10;4.30;;;16.50;45.00;;;;;;5071682;28;20384;-76
2022/07/16 01:34:33;;;;;;;9.43;4.50;;;16.70;44.00;;;;;;5071448;28;20387;-78
2022/07/16 01:37:07;;;;;;;9.73;4.10;;;16.60;44.20;;;;;;5071805;28;20452;-77
2022/07/16 01:39:35;;;;;;;5.95;4.20;;;16.50;45.90;;;;;;5075128;28;20463;-77
2022/07/16 01:42:04;;;;;;;6.93;4.00;;;16.50;46.70;;;;;;5074141;28;20861;-76
2022/07/16 01:44:31;;;;;;;7.63;4.10;;;16.40;47.50;;;;;;5077034;22;20429;-75
2022/07/16 01:46:58;;;;;;;10.75;4.55;;;16.30;49.20;;;;;;5050630;28;20442;-75
2022/07/16 01:49:28;;;;;;;7.80;4.20;;;16.10;50.30;;;;;;5051348;28;20394;-75
2022/07/16 01:51:54;;;;;;;9.13;4.93;;;16.20;50.80;;;;;;5051330;28;20372;-74
2022/07/16 01:54:19;;;;;;;7.07;4.00;;;16.20;51.10;;;;;;5049754;28;20472;-74
2022/07/16 01:56:45;;;;;;;6.45;3.75;;;16.10;51.20;;;;;;5051477;28;20843;-75
2022/07/16 01:59:11;;;;;;;6.00;4.30;;;16.30;49.90;;;;;;5051457;28;20389;-74
2022/07/16 02:01:36;;;;;;;9.40;4.33;;;16.40;49.10;;;;;;5049826;28;20727;-74
2022/07/16 02:04:02;;;;;;;7.50;4.80;;;16.30;49.70;;;;;;5051076;28;20469;-74
2022/07/16 02:06:27;;;;;;;10.50;4.68;;;16.30;50.40;;;;;;5049931;28;20389;-74
2022/07/16 02:08:53;;;;;;;10.37;4.20;;;16.30;50.70;;;;;;5051008;28;20447;-74
2022/07/16 02:11:19;;;;;;;7.53;4.20;;;16.20;50.70;;;;;;5050757;28;20417;-74
2022/07/16 02:13:44;;;;;;;10.10;5.32;;;16.20;50.70;;;;;;5051261;28;20428;-74
2022/07/16 02:16:11;;;;;;;7.22;4.47;;;16.10;51.50;;;;;;5051036;28;20401;-75
2022/07/16 02:18:37;;;;;;;7.30;4.10;;;16.00;52.00;;;;;;5051098;28;20385;-75
2022/07/16 02:21:03;;;;;;;9.88;4.68;;;15.90;52.30;;;;;;5051671;28;20903;-76
2022/07/16 02:23:28;;;;;;;8.57;4.50;;;15.90;52.20;;;;;;5049861;28;20393;-75
2022/07/16 02:25:54;;;;;;;8.32;4.40;;;15.70;53.30;;;;;;5051047;28;20408;-75
2022/07/16 02:28:21;;;;;;;6.90;4.10;;;15.70;53.90;;;;;;5051966;28;20385;-76
2022/07/16 02:30:48;;;;;;;9.57;4.60;;;15.70;53.80;;;;;;5050854;28;20389;-75
2022/07/16 02:33:16;;;;;;;7.50;4.20;;;15.70;53.50;;;;;;5050845;28;20378;-76
2022/07/16 02:35:42;;;;;;;4.35;3.90;;;15.80;52.70;;;;;;5051756;28;20402;-74
2022/07/16 02:38:09;;;;;;;6.45;3.80;;;15.80;52.50;;;;;;5055415;28;20385;-74
2022/07/16 02:40:35;;;;;;;9.82;4.53;;;15.80;53.50;;;;;;5054969;28;20388;-76
2022/07/16 02:43:03;;;;;;;7.82;5.07;;;15.80;52.40;;;;;;5055219;28;20384;-75
2022/07/16 02:45:29;;;;;;;6.97;4.15;;;15.70;53.10;;;;;;5053305;28;20393;-75
2022/07/16 02:47:55;;;;;;;4.53;3.80;;;15.80;53.30;;;;;;5054570;28;20394;-74
2022/07/16 02:50:21;;;;;;;6.95;3.95;;;15.80;52.80;;;;;;5054540;28;20381;-75
2022/07/16 02:52:47;;;;;;;8.70;4.10;;;15.80;52.70;;;;;;5054365;28;20879;-74
2022/07/16 02:55:14;;;;;;;7.43;4.53;;;15.80;53.20;;;;;;5054444;28;20897;-75
2022/07/16 02:57:40;;;;;;;8.82;4.00;;;15.80;53.10;;;;;;5053204;28;20820;-76
2022/07/16 03:00:11;;;;;;;8.93;4.60;;;15.80;53.00;;;;;;5054292;28;20393;-75
2022/07/16 03:02:37;;;;;;;8.90;4.20;;;15.80;52.90;;;;;;5065423;28;20421;-74
2022/07/16 03:05:03;;;;;;;7.07;4.15;;;15.90;52.70;;;;;;5067876;28;20381;-72
2022/07/16 03:07:29;;;;;;;8.02;4.35;;;15.90;52.50;;;;;;5061105;28;20397;-75
2022/07/16 03:09:55;;;;;;;8.07;4.33;;;15.80;52.40;;;;;;5053454;28;20390;-74
2022/07/16 03:12:20;;;;;;;8.87;4.50;;;16.00;52.00;;;;;;5054450;28;20405;-74
2022/07/16 03:14:46;;;;;;;11.60;5.03;;;16.00;51.80;;;;;;5054166;28;20421;-74
2022/07/16 03:17:12;;;;;;;6.20;4.10;;;16.10;51.50;;;;;;5054380;28;20475;-75
2022/07/16 03:19:38;;;;;;;7.37;4.63;;;16.10;52.10;;;;;;5054049;28;20398;-75
2022/07/16 03:22:04;;;;;;;6.37;4.20;;;16.10;50.90;;;;;;5053385;28;20435;-75
2022/07/16 03:24:29;;;;;;;7.27;4.50;;;16.20;49.80;;;;;;5053781;28;20382;-74
2022/07/16 03:26:55;;;;;;;8.00;4.50;;;16.20;49.70;;;;;;5053812;28;20394;-74
2022/07/16 03:29:21;;;;;;;10.15;4.75;;;16.20;49.30;;;;;;5053967;28;20392;-74
2022/07/16 03:31:47;;;;;;;9.23;4.40;;;16.20;49.70;;;;;;5053554;28;20455;-74
2022/07/16 03:34:13;;;;;;;10.70;4.60;;;16.30;49.70;;;;;;5053819;28;20791;-74
2022/07/16 03:36:38;;;;;;;6.22;4.20;;;16.20;49.20;;;;;;5052580;28;20408;-74
2022/07/16 03:39:04;;;;;;;6.50;4.25;;;16.30;48.50;;;;;;5054687;28;20900;-76
2022/07/16 03:41:31;;;;;;;6.15;4.10;;;16.30;48.40;;;;;;5054121;28;20396;-75
2022/07/16 03:43:58;;;;;;;9.82;4.47;;;16.40;48.00;;;;;;5053575;28;20381;-74
2022/07/16 03:46:24;;;;;;;7.18;4.50;;;16.30;48.00;;;;;;5053441;28;20749;-75
2022/07/16 03:48:49;;;;;;;7.13;4.28;;;16.30;48.20;;;;;;5053603;28;20384;-74
2022/07/16 03:51:15;;;;;;;8.75;4.40;;;16.40;47.70;;;;;;5053825;28;20750;-74
2022/07/16 03:53:41;;;;;;;12.20;4.40;;;16.50;47.10;;;;;;5053697;28;20476;-75
2022/07/16 03:56:07;;;;;;;8.73;4.60;;;16.50;46.70;;;;;;5052339;28;20401;-75
2022/07/16 03:58:32;;;;;;;7.60;4.13;;;16.50;47.10;;;;;;5053463;28;20424;-75
2022/07/16 04:00:58;;;;;;;7.03;4.57;;;16.50;46.90;;;;;;5055561;28;20382;-76
2022/07/16 04:03:24;;;;;;;8.67;4.60;;;16.40;47.30;;;;;;5057634;28;20392;-76
2022/07/16 04:05:50;;;;;;;16.07;4.87;;;16.40;46.80;;;;;;5057571;28;20837;-75
2022/07/16 04:08:16;;;;;;;7.03;3.97;;;16.40;46.50;;;;;;5056702;28;20381;-75
2022/07/16 04:10:42;;;;;;;11.30;3.85;;;16.40;47.30;;;;;;5052977;28;20381;-74
2022/07/16 04:13:08;;;;;;;6.20;4.00;;;16.50;46.60;;;;;;5053262;28;20464;-76
2022/07/16 04:15:33;;;;;;;10.00;4.80;;;16.40;45.40;;;;;;5052823;28;20847;-73
2022/07/16 04:17:59;;;;;;;9.10;4.80;;;16.50;45.80;;;;;;5053267;28;20404;-75
2022/07/16 04:20:24;;;;;;;12.05;4.60;;;16.40;46.90;;;;;;5054191;28;20392;-76
2022/07/16 04:22:50;;;;;;;10.10;4.80;;;16.40;47.10;;;;;;5052835;28;20434;-75
2022/07/16 04:25:15;;;;;;;12.53;5.50;;;16.40;47.50;;;;;;5053272;28;20378;-76
2022/07/16 04:27:44;;;;;;;12.40;4.75;;;16.40;47.20;;;;;;5053091;28;20719;-75
2022/07/16 04:30:11;;;;;;;14.15;4.80;;;16.40;47.50;;;;;;5052842;28;20468;-75
2022/07/16 04:32:38;;;;;;;8.18;4.93;;;16.50;48.00;;;;;;5052431;28;20385;-76
2022/07/16 04:35:05;;;;;;;10.60;5.07;;;16.50;47.00;;;;;;5052867;28;20385;-75
2022/07/16 04:37:31;;;;;;;6.93;4.80;;;16.50;47.70;;;;;;5053167;28;20401;-74
2022/07/16 04:39:56;;;;;;;12.55;5.00;;;16.50;47.90;;;;;;5053063;28;20389;-74
2022/07/16 04:42:22;;;;;;;7.78;4.20;;;16.50;48.00;;;;;;5052654;28;20397;-74
2022/07/16 04:44:48;;;;;;;9.38;4.78;;;16.50;47.00;;;;;;5064523;28;20424;-74
2022/07/16 04:47:13;;;;;;;11.10;5.60;;;16.50;47.00;;;;;;5063979;28;20402;-74
2022/07/16 04:49:39;;;;;;;7.70;4.73;;;16.60;46.70;;;;;;5062001;28;20450;-74
2022/07/16 04:52:05;;;;;;;9.23;4.47;;;16.70;46.20;;;;;;5054016;28;20389;-75
2022/07/16 04:54:31;;;;;;;7.90;4.32;;;16.80;44.90;;;;;;5052983;28;20424;-75
2022/07/16 04:56:56;;;;;;;12.48;4.60;;;16.90;43.50;;;;;;5053193;28;20812;-74
2022/07/16 04:59:22;;;;;;;13.57;5.20;;;17.00;43.40;;;;;;5052332;28;20866;-75
2022/07/16 05:01:48;;;;;;;11.77;4.70;;;17.00;43.30;;;;;;5052238;28;20858;-74
2022/07/16 05:04:13;;;;;;;9.40;4.30;;;16.90;43.80;;;;;;5051184;28;20386;-75
2022/07/16 05:06:39;;;;;;;5.90;4.03;;;17.00;43.30;;;;;;5051736;28;20389;-74
2022/07/16 05:09:11;;;;;;;9.98;4.20;;;17.20;41.10;;;;;;5052547;28;20397;-75
2022/07/16 05:11:37;;;;;;;11.02;4.63;;;17.20;41.20;;;;;;5050850;28;20394;-75
2022/07/16 05:14:02;;;;;;;11.52;5.40;;;17.30;41.10;;;;;;5052237;28;20385;-74
2022/07/16 05:16:28;;;;;;;11.83;4.23;;;17.40;39.50;;;;;;5052522;28;20397;-75
2022/07/16 05:18:54;;;;;;;7.00;4.47;;;17.50;39.00;;;;;;5051691;28;20393;-74
2022/07/16 05:21:20;;;;;;;13.10;5.13;;;17.60;38.40;;;;;;5049965;28;20428;-72
2022/07/16 05:23:45;;;;;;;9.73;4.20;;;17.70;38.00;;;;;;5051132;28;20503;-75
2022/07/16 05:26:11;;;;;;;12.77;4.90;;;17.80;37.70;;;;;;5051086;28;20784;-74
2022/07/16 05:28:36;;;;;;;8.33;4.77;;;18.00;36.70;;;;;;5051798;28;20386;-75
2022/07/16 05:31:02;;;;;;;12.13;5.10;;;18.20;35.10;;;;;;5051705;28;20389;-73
2022/07/16 05:33:28;;;;;;;15.07;4.70;;;18.20;35.30;;;;;;5051620;28;20481;-74
2022/07/16 05:35:53;;;;;;;9.38;4.45;;;18.20;35.10;;;;;;5051728;28;20409;-74
2022/07/16 05:38:19;;;;;;;10.07;3.80;;;18.30;35.60;;;;;;5053562;28;20401;-74
2022/07/16 05:40:45;;;;;;;11.60;5.77;;;18.40;34.90;;;;;;5056283;28;20405;-73
2022/07/16 05:43:10;;;;;;;7.55;4.30;;;18.80;32.90;;;;;;5057041;28;20385;-74
2022/07/16 05:45:36;;;;;;;11.65;4.35;;;18.70;32.50;;;;;;5055308;28;20420;-73
2022/07/16 05:48:02;;;;;;;6.55;3.92;;;18.80;30.40;;;;;;5054883;28;20403;-75
2022/07/16 05:50:28;;;;;;;7.70;3.70;;;19.00;27.70;;;;;;5051021;28;20396;-73
2022/07/16 05:52:54;;;;;;;7.57;4.40;;;19.00;25.70;;;;;;5050592;28;20377;-74
2022/07/16 05:55:19;;;;;;;5.80;3.73;;;18.80;25.90;;;;;;5050722;28;20396;-73
2022/07/16 05:57:45;;;;;;;5.53;4.10;;;18.70;26.40;;;;;;5051172;28;20495;-73
2022/07/16 06:00:12;;;;;;;8.80;4.40;;;18.90;26.70;;;;;;5051150;28;20757;-74
2022/07/16 06:02:38;;;;;;;5.63;3.75;;;19.10;25.20;;;;;;5050910;28;20464;-74
2022/07/16 06:05:04;;;;;;;8.23;4.00;;;19.10;25.30;;;;;;5050988;28;20424;-75
2022/07/16 06:07:30;;;;;;;6.60;4.33;;;19.10;25.20;;;;;;5051091;28;20854;-74
2022/07/16 06:09:55;;;;;;;8.53;4.97;;;19.20;25.20;;;;;;5052018;28;20523;-74
2022/07/16 06:12:21;;;;;;;17.20;4.85;;;19.20;25.40;;;;;;5054838;28;20749;-74
2022/07/16 06:14:46;;;;;;;9.20;5.13;;;19.20;25.60;;;;;;5055142;28;20433;-73
2022/07/16 06:17:13;;;;;;;15.97;4.90;;;19.10;25.80;;;;;;5055362;28;20397;-73
2022/07/16 06:19:42;;;;;;;8.48;4.75;;;19.30;26.20;;;;;;5055775;28;20381;-75
2022/07/16 06:22:09;;;;;;;6.97;4.82;;;19.30;26.60;;;;;;5054638;28;20854;-74
2022/07/16 06:24:34;;;;;;;7.00;4.53;;;19.50;25.80;;;;;;5055397;28;20429;-75
2022/07/16 06:27:00;;;;;;;8.13;5.40;;;19.80;24.80;;;;;;5057111;28;20534;-75
2022/07/16 06:29:25;;;;;;;12.05;6.05;;;19.60;25.70;;;;;;5057812;28;20386;-74
2022/07/16 06:31:51;;;;;;;7.80;5.73;;;19.60;25.90;;;;;;5058806;28;20927;-73
2022/07/16 06:34:16;;;;;;;10.60;5.90;;;19.80;26.70;;;;;;5052609;28;20391;-74
2022/07/16 06:36:42;;;;;;;13.45;6.88;;;19.60;26.80;;;;;;5042102;28;20415;-74
2022/07/16 06:39:11;;;;;;;12.60;7.05;;;19.30;28.50;;;;;;5057077;28;20408;-74
2022/07/16 06:41:37;;;;;;;10.73;6.13;;;19.20;29.50;;;;;;5036127;28;20395;-74
2022/07/16 06:44:04;;;;;;;13.40;7.00;;;19.30;30.00;;;;;;5034487;28;20394;-75
2022/07/16 06:46:30;;;;;;;11.00;7.45;;;19.40;29.80;;;;;;5034384;28;20421;-74
2022/07/16 06:48:55;;;;;;;16.40;8.63;;;19.50;30.10;;;;;;5041347;28;20416;-76
2022/07/16 06:51:21;;;;;;;15.60;8.03;;;19.50;30.90;;;;;;5035597;28;20437;-74
2022/07/16 06:53:46;;;;;;;15.88;9.35;;;19.30;32.10;;;;;;5051100;28;20386;-74
2022/07/16 06:56:12;;;;;;;16.27;8.85;;;19.30;33.00;;;;;;5048402;28;20405;-77
2022/07/16 06:58:38;;;;;;;14.20;8.50;;;19.50;33.00;;;;;;5054833;28;20390;-76
2022/07/16 07:01:03;;;;;;;14.97;8.50;;;19.70;32.20;;;;;;5046512;28;20398;-76
2022/07/16 07:03:29;;;;;;;8.70;6.18;;;19.90;32.40;;;;;;5054790;28;20807;-75
2022/07/16 07:05:55;;;;;;;13.75;7.00;;;19.60;33.60;;;;;;5054301;28;20472;-74
2022/07/16 07:08:20;;;;;;;11.70;7.03;;;19.50;34.90;;;;;;5053350;28;20390;-76
2022/07/16 07:10:46;;;;;;;9.03;5.00;;;19.70;34.60;;;;;;5050246;28;20740;-76
2022/07/16 07:13:12;;;;;;;9.70;6.10;;;19.70;33.60;;;;;;5044473;28;20395;-76
2022/07/16 07:15:37;;;;;;;11.35;6.63;;;19.60;34.50;;;;;;5033777;28;20441;-77
2022/07/16 07:18:03;;;;;;;6.80;5.38;;;19.70;35.20;;;;;;5044840;28;20398;-77
2022/07/16 07:20:29;;;;;;;10.87;6.77;;;19.90;34.00;;;;;;5052081;28;20406;-77
2022/07/16 07:22:55;;;;;;;11.52;5.97;;;20.00;32.60;;;;;;5052489;28;20389;-76
2022/07/16 07:25:21;;;;;;;13.43;7.25;;;20.10;33.00;;;;;;5054588;28;20396;-77
2022/07/16 07:27:46;;;;;;;10.17;7.27;;;20.10;31.70;;;;;;5054290;28;20477;-76
2022/07/16 07:30:12;;;;;;;10.43;7.00;;;19.80;32.90;;;;;;5048656;28;20392;-77
2022/07/16 07:32:38;;;;;;;14.98;8.18;;;19.80;33.60;;;;;;5034251;28;20399;-77
2022/07/16 07:35:04;;;;;;;13.60;8.13;;;20.00;32.60;;;;;;5042002;28;20473;-77
2022/07/16 07:37:30;;;;;;;11.45;7.28;;;20.10;32.30;;;;;;5054120;28;20409;-77
2022/07/16 07:39:55;;;;;;;12.70;5.50;;;20.10;32.40;;;;;;5037864;28;20463;-77
2022/07/16 07:42:21;;;;;;;10.98;6.40;;;20.60;30.20;;;;;;5049977;28;20503;-77
2022/07/16 07:44:46;;;;;;;14.00;5.60;;;20.90;28.70;;;;;;5036569;28;20490;-76
2022/07/16 07:47:12;;;;;;;6.67;5.40;;;20.90;28.40;;;;;;5043402;28;20404;-75
2022/07/16 07:49:37;;;;;;;7.40;5.35;;;21.00;27.20;;;;;;5044592;28;20406;-74
2022/07/16 07:52:03;;;;;;;9.10;6.00;;;20.80;27.60;;;;;;5033009;28;20395;-76
2022/07/16 07:54:29;;;;;;;9.07;5.90;;;20.90;27.00;;;;;;5031544;28;20387;-74
2022/07/16 07:56:54;;;;;;;11.80;5.68;;;21.00;26.80;;;;;;5031643;28;20405;-75
2022/07/16 07:59:20;;;;;;;8.20;5.40;;;21.30;25.70;;;;;;5040656;28;20484;-75
2022/07/16 08:01:45;;;;;;;11.93;8.03;;;21.10;25.00;;;;;;5049520;28;20382;-74
2022/07/16 08:04:11;;;;;;;11.27;7.47;;;21.00;25.40;;;;;;5050674;28;20476;-75
2022/07/16 08:06:37;;;;;;;12.97;7.67;;;21.10;24.60;;;;;;5050258;28;20474;-74
2022/07/16 08:09:04;;;;;;;10.17;6.67;;;21.10;24.90;;;;;;5035257;28;20425;-75
2022/07/16 08:11:29;;;;;;;8.98;6.45;;;21.30;24.30;;;;;;5031879;28;20406;-75
2022/07/16 08:13:55;;;;;;;7.50;5.78;;;21.50;23.70;;;;;;5047502;28;20397;-75
2022/07/16 08:16:20;;;;;;;7.95;4.90;;;21.20;23.20;;;;;;5051574;28;20424;-75
2022/07/16 08:18:46;;;;;;;6.93;3.47;;;20.80;24.90;;;;;;5042547;28;20405;-74
2022/07/16 08:21:11;;;;;;;8.35;3.55;;;20.70;22.40;;;;;;5059147;28;21178;-75
2022/07/16 08:26:21;;;;;;;3.88;1.90;;;20.40;21.30;;;;;;5033044;28;20442;-76
2022/07/16 08:28:47;;;;;;;9.10;2.30;;;20.30;20.70;;;;;;5032630;28;20402;-74
2022/07/16 08:31:13;;;;;;;3.60;1.83;;;20.50;20.50;;;;;;5041523;28;20460;-75
2022/07/16 08:33:39;;;;;;;2.88;1.70;;;20.60;19.20;;;;;;5053568;28;20386;-74
2022/07/16 08:36:05;;;;;;;4.25;2.15;;;20.70;18.60;;;;;;5070893;28;20398;-74
2022/07/16 08:38:30;;;;;;;2.00;1.20;;;20.90;18.70;;;;;;5051810;28;20381;-76
2022/07/16 08:40:56;;;;;;;4.53;1.87;;;20.80;17.90;;;;;;5050724;28;20468;-74
2022/07/16 08:43:22;;;;;;;3.80;1.70;;;20.60;17.70;;;;;;5050730;28;20440;-76
2022/07/16 08:45:50;;;;;;;3.97;1.90;;;20.70;18.10;;;;;;5050239;28;20874;-75
2022/07/16 08:48:16;;;;;;;3.90;2.28;;;20.70;18.00;;;;;;5051447;28;20432;-75
2022/07/16 08:50:42;;;;;;;4.32;1.80;;;20.80;17.40;;;;;;5052005;28;20381;-75
2022/07/16 08:53:08;;;;;;;3.10;2.00;;;20.90;17.30;;;;;;5050437;28;20378;-76
2022/07/16 08:55:38;;;;;;;6.53;1.80;;;21.10;16.70;;;;;;5056939;28;20393;-78
2022/07/16 08:58:06;;;;;;;3.05;1.90;;;20.80;16.30;;;;;;5061856;28;20411;-79
2022/07/16 09:00:32;;;;;;;5.10;1.90;;;20.60;17.50;;;;;;5060814;28;20385;-77
2022/07/16 09:02:58;;;;;;;5.75;1.63;;;20.80;18.10;;;;;;5057680;28;20441;-74
2022/07/16 09:05:24;;;;;;;4.90;2.00;;;21.20;17.20;;;;;;5053590;28;20429;-76
2022/07/16 09:07:50;;;;;;;4.90;1.40;;;21.60;15.70;;;;;;5051322;28;20467;-76
2022/07/16 09:10:16;;;;;;;2.70;1.90;;;21.80;15.20;;;;;;5054010;28;20468;-75
2022/07/16 09:12:47;;;;;;;1.60;1.40;;;21.70;14.30;;;;;;5057299;28;20385;-77
2022/07/16 09:15:36;;;;;;;2.40;1.60;;;21.50;15.60;;;;;;5040180;28;20472;-75
2022/07/16 09:18:21;;;;;;;3.70;1.60;;;21.90;15.30;;;;;;5045660;28;20403;-77
2022/07/16 09:20:53;;;;;;;3.20;1.50;;;22.30;14.50;;;;;;5039623;28;20410;-77
2022/07/16 09:23:27;;;;;;;5.10;1.65;;;22.50;13.10;;;;;;5038485;28;20387;-76
2022/07/16 09:26:04;;;;;;;4.15;1.80;;;22.20;13.30;;;;;;5036252;28;20398;-77
2022/07/16 09:28:49;;;;;;;2.45;1.60;;;22.00;12.70;;;;;;5035142;28;20783;-75
2022/07/16 09:31:34;;;;;;;2.35;1.60;;;22.00;14.10;;;;;;5030814;28;20395;-76
2022/07/16 09:34:04;;;;;;;3.55;1.80;;;22.10;14.40;;;;;;5032536;28;20744;-76
2022/07/16 09:36:30;;;;;;;5.37;1.90;;;22.40;13.50;;;;;;5032036;28;20403;-75
2022/07/16 09:38:55;;;;;;;3.23;1.63;;;22.80;12.30;;;;;;5032418;28;20387;-76
2022/07/16 09:41:22;;;;;;;3.88;1.92;;;22.60;11.60;;;;;;5030256;28;20387;-76
2022/07/16 09:43:48;;;;;;;3.88;1.90;;;22.40;12.20;;;;;;5031234;28;20732;-76
2022/07/16 09:46:22;;;;;;;4.00;2.30;;;22.20;13.10;;;;;;5030392;28;20386;-76
2022/07/16 09:48:49;;;;;;;4.85;1.50;;;22.10;13.40;;;;;;5031935;28;20406;-76
2022/07/16 09:51:26;;;;;;;6.07;1.70;;;22.10;14.00;;;;;;5032720;28;20920;-76
2022/07/16 09:53:54;;;;;;;4.30;1.98;;;21.60;15.00;;;;;;5031494;28;20387;-76
2022/07/16 09:56:27;;;;;;;3.75;1.50;;;21.60;15.40;;;;;;5031444;28;20406;-76
2022/07/16 09:58:55;;;;;;;5.10;1.70;;;21.70;15.30;;;;;;5030325;28;20399;-75
2022/07/16 10:01:21;;;;;;;5.47;2.00;;;22.10;15.00;;;;;;5031750;28;20387;-75
2022/07/16 10:03:49;;;;;;;3.33;1.97;;;22.00;14.10;;;;;;5029849;28;20471;-75
2022/07/16 10:06:15;;;;;;;4.97;1.87;;;22.60;14.10;;;;;;5031207;28;20449;-76
2022/07/16 10:08:43;;;;;;;3.90;1.83;;;22.80;13.20;;;;;;5031651;28;20391;-76
2022/07/16 10:11:10;;;;;;;2.78;1.67;;;22.60;13.20;;;;;;5031668;28;20391;-76
2022/07/16 10:13:37;;;;;;;5.18;2.20;;;22.60;13.00;;;;;;5030394;28;20455;-76
2022/07/16 10:16:03;;;;;;;3.53;2.10;;;22.60;13.90;;;;;;5032063;28;20818;-76
2022/07/16 10:18:40;;;;;;;5.22;1.65;;;22.40;13.60;;;;;;5034661;28;20547;-76
2022/07/16 10:21:16;;;;;;;2.40;1.60;;;22.30;14.20;;;;;;5038604;28;20756;-76
2022/07/16 10:24:02;;;;;;;2.93;1.90;;;21.90;14.70;;;;;;5037386;28;20390;-75
2022/07/16 10:26:28;;;;;;;4.55;2.15;;;21.70;15.60;;;;;;5038510;28;20393;-76
2022/07/16 10:28:55;;;;;;;4.60;2.10;;;21.80;15.20;;;;;;5036506;28;20384;-76
2022/07/16 10:31:38;;;;;;;2.33;1.90;;;22.30;15.00;;;;;;5035735;28;20401;-76
2022/07/16 10:34:13;;;;;;;2.40;2.03;;;22.80;13.80;;;;;;5033711;28;20391;-76
2022/07/16 10:36:54;;;;;;;4.53;2.40;;;23.20;13.50;;;;;;5032989;28;20465;-76
2022/07/16 10:39:22;;;;;;;4.82;2.50;;;23.30;13.10;;;;;;5034032;28;20466;-76
2022/07/16 10:41:50;;;;;;;7.15;2.60;;;22.80;13.60;;;;;;5034032;28;20793;-77
2022/07/16 10:44:16;;;;;;;4.27;2.27;;;22.30;14.30;;;;;;5031199;28;20432;-76
2022/07/16 10:46:52;;;;;;;4.68;2.30;;;22.30;14.20;;;;;;5032916;28;20383;-76
2022/07/16 10:49:18;;;;;;;5.50;1.60;;;22.50;14.30;;;;;;5034293;28;20397;-76
2022/07/16 10:52:03;;;;;;;4.85;2.00;;;22.40;13.70;;;;;;5035365;28;20395;-77
2022/07/16 10:54:35;;;;;;;4.30;1.70;;;22.40;13.80;;;;;;5035567;28;20390;-76
2022/07/16 10:57:02;;;;;;;4.50;1.90;;;22.70;13.30;;;;;;5038728;28;20453;-76
2022/07/16 10:59:34;;;;;;;4.40;1.87;;;22.50;13.30;;;;;;5043410;28;20448;-76
2022/07/16 11:02:03;;;;;;;2.72;1.60;;;22.30;13.70;;;;;;5043111;28;20371;-76
2022/07/16 11:04:40;;;;;;;4.88;1.70;;;22.30;13.00;;;;;;5040022;28;20874;-76
2022/07/16 11:07:15;;;;;;;5.13;1.70;;;22.60;13.20;;;;;;5037785;28;20466;-76
2022/07/16 11:09:42;;;;;;;2.90;1.50;;;22.80;12.10;;;;;;5034999;28;20414;-76
2022/07/16 11:12:14;;;;;;;4.10;1.60;;;23.30;12.50;;;;;;5034340;28;20430;-76
2022/07/16 11:14:40;;;;;;;5.10;1.60;;;23.10;11.50;;;;;;5034360;28;20460;-76
2022/07/16 11:17:06;;;;;;;2.33;1.55;;;22.40;12.60;;;;;;5034488;28;20403;-76
2022/07/16 11:19:48;;;;;;;6.55;1.95;;;22.10;13.20;;;;;;5034330;28;20395;-76
2022/07/16 11:22:17;;;;;;;8.57;1.90;;;22.10;13.80;;;;;;5033735;28;20852;-76
2022/07/16 11:24:45;;;;;;;6.38;2.15;;;22.40;13.90;;;;;;5033867;28;20442;-76
2022/07/16 11:27:11;;;;;;;3.93;1.63;;;22.80;12.40;;;;;;5034226;28;20438;-76
2022/07/16 11:29:36;;;;;;;2.60;1.40;;;23.10;10.90;;;;;;5033755;28;20387;-75
2022/07/16 11:32:02;;;;;;;3.90;1.80;;;23.00;11.40;;;;;;5034153;28;20421;-76
2022/07/16 11:34:33;;;;;;;2.60;1.20;;;22.50;11.80;;;;;;5035029;28;20926;-75
2022/07/16 11:36:58;;;;;;;5.40;1.85;;;22.40;12.70;;;;;;5033997;28;20768;-76
2022/07/16 11:39:27;;;;;;;3.40;1.88;;;22.20;12.70;;;;;;5035040;28;20395;-75
2022/07/16 11:41:54;;;;;;;3.03;1.40;;;22.20;12.80;;;;;;5035387;28;20379;-76
2022/07/16 11:44:24;;;;;;;2.90;1.70;;;22.10;12.70;;;;;;5035704;28;20425;-76
2022/07/16 11:47:10;;;;;;;3.90;1.50;;;22.30;12.80;;;;;;5036047;28;20394;-76
2022/07/16 11:49:41;;;;;;;3.60;1.30;;;22.80;11.40;;;;;;5037647;28;20415;-76
2022/07/16 11:52:20;;;;;;;2.13;1.30;;;23.10;10.70;;;;;;5036100;28;20501;-76
2022/07/16 11:54:46;;;;;;;3.80;1.50;;;23.10;10.50;;;;;;5037281;28;20383;-76
2022/07/16 11:57:12;;;;;;;4.40;1.73;;;22.40;11.60;;;;;;5034084;28;20446;-75
2022/07/16 11:59:49;;;;;;;3.15;1.30;;;22.10;11.80;;;;;;5033785;28;20760;-75
2022/07/16 12:02:20;;;;;;;3.08;1.40;;;21.90;11.50;;;;;;5033590;28;20419;-76
2022/07/16 12:04:48;;;;;;;1.60;1.20;;;22.30;10.90;;;;;;5033658;28;20381;-76
2022/07/16 12:07:16;;;;;;;6.40;1.73;;;22.70;9.30;;;;;;5033926;28;20391;-76
2022/07/16 12:09:47;;;;;;;7.35;1.88;;;23.10;9.50;;;;;;5034458;28;20449;-77
2022/07/16 12:12:16;;;;;;;4.80;1.70;;;23.60;8.70;;;;;;5034908;28;20397;-76
2022/07/16 12:14:47;;;;;;;6.30;1.50;;;23.50;9.10;;;;;;5033426;28;20394;-76
2022/07/16 12:17:33;;;;;;;4.25;1.42;;;23.00;9.40;;;;;;5032871;28;20722;-75
2022/07/16 12:20:03;;;;;;;2.50;1.60;;;22.90;8.90;;;;;;5033287;28;20910;-75
2022/07/16 12:22:49;;;;;;;4.53;1.33;;;22.90;8.60;;;;;;5033433;28;20450;-75
2022/07/16 12:25:27;;;;;;;3.93;1.50;;;23.20;7.90;;;;;;5033229;28;20387;-77
2022/07/16 12:28:00;;;;;;;5.53;1.80;;;23.30;7.70;;;;;;5032659;28;20383;-75
2022/07/16 12:30:35;;;;;;;4.47;1.63;;;23.30;8.10;;;;;;5033119;28;20824;-75
2022/07/16 12:33:03;;;;;;;5.68;1.50;;;23.60;8.80;;;;;;5032000;28;20395;-75
2022/07/16 12:35:39;;;;;;;4.38;1.35;;;23.60;8.70;;;;;;5032417;28;20482;-75
2022/07/16 12:38:05;;;;;;;3.40;1.40;;;23.10;9.60;;;;;;5032597;28;20414;-76
2022/07/16 12:40:32;;;;;;;3.47;1.60;;;23.10;9.60;;;;;;5032269;28;20379;-75
2022/07/16 12:42:59;;;;;;;4.33;1.73;;;23.30;9.30;;;;;;5032717;28;20386;-76
2022/07/16 12:45:25;;;;;;;4.50;1.60;;;23.80;8.00;;;;;;5032448;28;20401;-76
2022/07/16 12:47:51;;;;;;;3.17;1.30;;;24.20;7.20;;;;;;5032581;28;20918;-76
2022/07/16 12:50:16;;;;;;;4.07;2.00;;;23.90;7.20;;;;;;5032291;28;20390;-75